Tropical Cyclones
[Index]
Main Index Home Page Stock Weather Photos Extreme Storms Discussion Storm News and Storm Chasing Reports Tropical Cyclones / Hurricanes / Typhoons Weather Data and Links Wild Fires / Bushfires Weather Observation Techniques Weather Picture Catalogue Tornado Pictures and Reports Stock Video Footage and DVDs for sale
Season 1997-1998 Tropical Cyclone KATRINA Track Map
Season 1997-1998 Summaries: [BoM-AU] [JTWC-AU] [JTWC-SIO] [JTWC-SPAC] [JTWC-SH]
<<- Previous TC | BoM 1997-1998 Season | Next TC ->>

click for intensity scale information  Lat/long Grid: Show Hide

 Date Labels: Show Hide

Bureau of Meteorology Tropical Cyclone Data

Name: KATRINA
Number: 810 / 199798_04

02 Jan 1998 00:00 UTC to 24 Jan 1998 06:00 UTC

    date/time    lat    long    hPa   cat  kts
1998-01-02 00   15.0   152.0   1001         41          
1998-01-02 06   15.5   152.5   1000         41          
1998-01-02 12   16.0   153.3   1000         41          
1998-01-02 18   16.7   153.2    998         41          
1998-01-03 00   16.9   152.3    995    1    41          
1998-01-03 06   16.4   151.9    995    1    41          
1998-01-03 12   15.7   151.8    995    1    41          
1998-01-03 18   15.1   152.3    990    1    45          
1998-01-04 00   14.9   152.7    990    1    45          
1998-01-04 06   14.9   153.1    990    1    45          
1998-01-04 12   14.9   153.5    990    1    45          
1998-01-04 18   14.9   153.8    990    1    45          
1998-01-05 00   15.2   154.4    990    1    45          
1998-01-05 06   15.4   155.1    990    1    45          
1998-01-05 12   15.2   155.7    990    1    45          
1998-01-05 18   14.8   156.4    990    1    51          
1998-01-06 00   14.5   156.9    990    1    51          
1998-01-06 06   14.2   157.5    990    1    51          
1998-01-06 12   13.7   158.3    990    1    45          
1998-01-06 18   13.2   159.0    985    2    45          
1998-01-07 00   12.7   159.7    980    2    54          
1998-01-07 06   12.6   161.0    975    2    60          
1998-01-07 12   12.8   161.8    975    2    60          
1998-01-07 18   13.1   162.2    975    2    60          
1998-01-08 00   13.5   163.0    975    2    60          
1998-01-08 06   14.1   163.9    975    2    60          
1998-01-08 12   14.5   164.5    975    2    60          
1998-01-08 18   15.0   164.5    975    2    60          
1998-01-09 00   15.2   164.7    970    3    64          
1998-01-09 06   15.7   164.9    970    3    64          
1998-01-09 12   15.8   165.0    965    3    70          
1998-01-09 18   15.8   164.7    960    3    80          
1998-01-10 00   15.7   164.3    955    4    80          
1998-01-10 06   15.5   164.0    950    4    80          
1998-01-10 12   15.4   163.2    950    4    80          
1998-01-10 18   15.0   162.5    955    4    76          
1998-01-11 00   14.8   162.0    960    3    76          
1998-01-11 06   14.5   161.0    965    3    70          
1998-01-11 12   14.2   160.2    970    3    64          
1998-01-11 18   13.9   159.9    970    3    64          
1998-01-12 00   13.4   159.8    970    3    64          
1998-01-12 06   13.2   159.6    970    3    64          
1998-01-12 12   13.3   158.7    970    3    64          
1998-01-12 18   13.6   158.0    970    3    64          
1998-01-13 00   13.7   157.2    970    3    64          
1998-01-13 06   13.9   156.3    970    3    64          
1998-01-13 12   13.8   155.4    970    3    64          
1998-01-13 18   13.7   154.3    970    3    64          
1998-01-14 00   13.7   153.3    970    3    64          
1998-01-14 06   13.6   152.4    970    3    64          
1998-01-14 12   13.6   151.6    970    3    64          
1998-01-14 18   13.7   150.2    955    4    80          
1998-01-15 00   13.7   150.2    955    4    80          
1998-01-15 06   13.6   150.0    945    4    86          
1998-01-15 12   14.0   149.7    940    4    89          
1998-01-15 18   14.5   149.4    940    4    89          
1998-01-16 00   15.1   149.1    940    4    89          
1998-01-16 06   15.3   149.2    950    4    86          
1998-01-16 12   15.7   149.0    960    3    80          
1998-01-16 18   15.8   149.0    965    3    80          
1998-01-17 00   16.1   148.9    970    3    64          
1998-01-17 06   16.4   148.6    980    2    54          
1998-01-17 12   16.6   148.3    980    2    54          
1998-01-17 18   16.3   148.4    985    2    54          
1998-01-18 00   16.6   149.0    985    2    51          
1998-01-18 06   16.7   149.3    985    2    51          
1998-01-18 12   16.7   149.7    985    2    51          
1998-01-18 18   16.8   149.9    980    2    54          
1998-01-19 00   17.1   150.1    980    2    54          
1998-01-19 06   17.3   150.8    980    2    54          
1998-01-19 12   17.6   151.5    980    2    54          
1998-01-19 18   17.9   152.1    980    2    54          
1998-01-20 00   18.4   152.6    980    2    54          
1998-01-20 06   19.4   153.0    970    3    64          
1998-01-20 12   20.1   154.0    970    3    64          
1998-01-20 18   20.5   154.0    980    2    51          
1998-01-21 00   21.0   154.1    980    2    51          
1998-01-21 06   21.5   154.5    980    2    45          
1998-01-21 12   21.9   154.9    985    2    45          
1998-01-21 18   21.9   155.2    985    2    51          
1998-01-22 00   22.0   155.4    985    2    51          
1998-01-22 06   21.8   155.9    990    1    45          
1998-01-22 12   21.6   156.1    990    1    45          
1998-01-22 18   21.0   156.2    990    1    45          
1998-01-23 00   20.4   156.1    990    1    45          
1998-01-23 06   19.7   155.2    990    1    41          
1998-01-23 12   19.0   154.8    990    1    41          
1998-01-23 18   18.5   154.4    990    1    41          
1998-01-24 00   18.1   153.9    995    1    41          
1998-01-24 06   18.0   153.1    995    1    41          
Winds are 10-min average.

Tropical cyclone tracks developed by Michael Bath using data from the Bureau of Meteorology and Google Maps.


[Australian Severe Weather index] [Copyright Notice] [Email Contacts] [Search This Site] [Privacy Policy]
Document: tropical_cyclone_katrina.htm Updated: 30 May 2013